Flight Track Log - Related Links

Times and Time Zones

All times are in EDT time to prevent confusion due to time zone crossing. See the CTL18 flight status page for this flight to view local times or setup timezone preferences in your user account.

Time Position Orientation Groundspeed Altitude Reporting Facility
EDT Latitude Longitude Course Direction KTS MPH feet Rate Location/Type
Wed 06:59:08 PM 42.6622 -83.4406 274° West 116 133 1,400  Level Cleveland Center
Wed 06:59:44 PM 42.6636 -83.4689 274° West 112 129 2,000 980 Climbing Cleveland Center
Wed 07:00:46 PM 42.6731 -83.5117 287° West 129 148 3,000 968 Climbing Cleveland Center
Wed 07:02:00 PM 42.6988 -83.4641 54° Northeast  Level FlightAware Approximate
Wed 07:09:00 PM 42.9385 -83.4090 321° Northwest  Level FlightAware Approximate
Wed 07:10:00 PM 42.9659 -83.4391 321° Northwest  Level FlightAware Approximate
Wed 07:11:00 PM 42.9933 -83.4693 321° Northwest  Level FlightAware Approximate
Wed 07:12:00 PM 43.0207 -83.4995 321° Northwest  Level FlightAware Approximate
Wed 07:13:00 PM 43.0481 -83.5297 321° Northwest  Level FlightAware Approximate
Wed 07:14:00 PM 43.0754 -83.5600 321° Northwest  Level FlightAware Approximate
Wed 07:15:00 PM 43.1028 -83.5902 321° Northwest  Level FlightAware Approximate
Wed 07:16:00 PM 43.1301 -83.6206 321° Northwest  Level FlightAware Approximate
Wed 07:17:00 PM 43.1575 -83.6509 321° Northwest  Level FlightAware Approximate
Wed 07:18:00 PM 43.1848 -83.6813 321° Northwest  Level FlightAware Approximate
Wed 07:19:00 PM 43.2122 -83.7116 321° Northwest  Level FlightAware Approximate
Wed 07:20:00 PM 43.2386 -83.7434 318° Northwest  Level FlightAware Approximate
Wed 07:21:00 PM 43.2649 -83.7755 318° Northwest  Level FlightAware Approximate
Wed 07:22:00 PM 43.2912 -83.8076 318° Northwest  Level FlightAware Approximate
Wed 07:23:00 PM 43.3175 -83.8398 318° Northwest  Level FlightAware Approximate
Wed 07:24:00 PM 43.3438 -83.8719 318° Northwest  Level FlightAware Approximate
Wed 07:25:00 PM 43.3703 -83.9036 324° Northwest  Level FlightAware Approximate
Wed 07:26:00 PM 43.3988 -83.9321 324° Northwest  Level FlightAware Approximate
Wed 07:27:00 PM 43.4273 -83.9605 324° Northwest  Level FlightAware Approximate
Wed 07:28:00 PM 43.4557 -83.9890 324° Northwest  Level FlightAware Approximate
Wed 07:29:00 PM 43.4842 -84.0175 324° Northwest  Level FlightAware Approximate

Login

Don't have an account? Register now (free) for customized features, flight alerts, and more!